sensor_id;sensor_type;location;lat;lon;timestamp;P1;durP1;ratioP1;P2;durP2;ratioP2
6131;SDS011;3097;42.692;23.278;2022-09-09T00:04:12;18.20;;;12.30;;
6131;SDS011;3097;42.692;23.278;2022-09-09T00:07:03;14.10;;;11.93;;
6131;SDS011;3097;42.692;23.278;2022-09-09T00:09:49;18.13;;;12.67;;
6131;SDS011;3097;42.692;23.278;2022-09-09T00:15:27;16.30;;;11.63;;
6131;SDS011;3097;42.692;23.278;2022-09-09T00:18:03;16.20;;;11.93;;
6131;SDS011;3097;42.692;23.278;2022-09-09T00:23:44;13.87;;;11.23;;
6131;SDS011;3097;42.692;23.278;2022-09-09T00:26:16;13.33;;;11.63;;
6131;SDS011;3097;42.692;23.278;2022-09-09T00:31:31;13.17;;;11.17;;
6131;SDS011;3097;42.692;23.278;2022-09-09T00:33:59;14.80;;;11.90;;
6131;SDS011;3097;42.692;23.278;2022-09-09T00:36:33;14.00;;;11.40;;
6131;SDS011;3097;42.692;23.278;2022-09-09T00:39:02;13.90;;;10.63;;
6131;SDS011;3097;42.692;23.278;2022-09-09T00:44:37;17.00;;;12.27;;
6131;SDS011;3097;42.692;23.278;2022-09-09T00:50:14;14.87;;;11.83;;
6131;SDS011;3097;42.692;23.278;2022-09-09T00:58:07;12.53;;;11.03;;
6131;SDS011;3097;42.692;23.278;2022-09-09T01:00:47;12.70;;;11.03;;
6131;SDS011;3097;42.692;23.278;2022-09-09T01:03:27;13.97;;;11.57;;
6131;SDS011;3097;42.692;23.278;2022-09-09T01:06:17;15.50;;;10.70;;
6131;SDS011;3097;42.692;23.278;2022-09-09T01:11:22;13.63;;;10.93;;
6131;SDS011;3097;42.692;23.278;2022-09-09T01:16:56;12.53;;;10.97;;
6131;SDS011;3097;42.692;23.278;2022-09-09T01:19:33;14.80;;;11.37;;
6131;SDS011;3097;42.692;23.278;2022-09-09T01:22:22;13.63;;;10.57;;
6131;SDS011;3097;42.692;23.278;2022-09-09T01:27:46;13.97;;;11.17;;
6131;SDS011;3097;42.692;23.278;2022-09-09T01:30:15;12.53;;;10.70;;
6131;SDS011;3097;42.692;23.278;2022-09-09T01:32:46;12.07;;;10.40;;
6131;SDS011;3097;42.692;23.278;2022-09-09T01:35:18;13.37;;;10.30;;
6131;SDS011;3097;42.692;23.278;2022-09-09T01:38:03;13.07;;;10.73;;
6131;SDS011;3097;42.692;23.278;2022-09-09T01:40:29;12.13;;;10.90;;
6131;SDS011;3097;42.692;23.278;2022-09-09T01:42:54;14.37;;;10.30;;
6131;SDS011;3097;42.692;23.278;2022-09-09T01:45:21;11.80;;;10.47;;
6131;SDS011;3097;42.692;23.278;2022-09-09T01:47:47;14.33;;;11.00;;
6131;SDS011;3097;42.692;23.278;2022-09-09T01:50:14;12.97;;;11.17;;
6131;SDS011;3097;42.692;23.278;2022-09-09T01:52:41;14.20;;;10.60;;
6131;SDS011;3097;42.692;23.278;2022-09-09T01:55:08;12.20;;;10.33;;
6131;SDS011;3097;42.692;23.278;2022-09-09T01:57:54;12.40;;;10.57;;
6131;SDS011;3097;42.692;23.278;2022-09-09T02:00:42;11.77;;;10.27;;
6131;SDS011;3097;42.692;23.278;2022-09-09T02:03:18;14.17;;;10.70;;
6131;SDS011;3097;42.692;23.278;2022-09-09T02:05:53;12.53;;;10.60;;
6131;SDS011;3097;42.692;23.278;2022-09-09T02:08:31;12.00;;;10.80;;
6131;SDS011;3097;42.692;23.278;2022-09-09T02:13:40;15.53;;;11.27;;
6131;SDS011;3097;42.692;23.278;2022-09-09T02:21:09;12.67;;;11.20;;
6131;SDS011;3097;42.692;23.278;2022-09-09T02:23:39;11.70;;;10.50;;
6131;SDS011;3097;42.692;23.278;2022-09-09T02:26:07;12.43;;;10.77;;
6131;SDS011;3097;42.692;23.278;2022-09-09T02:28:36;13.87;;;11.50;;
6131;SDS011;3097;42.692;23.278;2022-09-09T02:31:03;14.00;;;10.53;;
6131;SDS011;3097;42.692;23.278;2022-09-09T02:33:30;12.63;;;11.00;;
6131;SDS011;3097;42.692;23.278;2022-09-09T02:36:02;12.57;;;11.23;;
6131;SDS011;3097;42.692;23.278;2022-09-09T02:38:34;13.77;;;11.73;;
6131;SDS011;3097;42.692;23.278;2022-09-09T02:41:05;12.60;;;11.03;;
6131;SDS011;3097;42.692;23.278;2022-09-09T02:43:34;14.63;;;11.60;;
6131;SDS011;3097;42.692;23.278;2022-09-09T02:51:24;14.23;;;12.10;;
6131;SDS011;3097;42.692;23.278;2022-09-09T02:56:59;13.80;;;11.43;;
6131;SDS011;3097;42.692;23.278;2022-09-09T02:59:31;15.50;;;11.70;;
6131;SDS011;3097;42.692;23.278;2022-09-09T03:01:57;15.03;;;11.80;;
6131;SDS011;3097;42.692;23.278;2022-09-09T03:04:22;13.77;;;11.70;;
6131;SDS011;3097;42.692;23.278;2022-09-09T03:06:49;15.47;;;12.00;;
6131;SDS011;3097;42.692;23.278;2022-09-09T03:09:14;15.03;;;11.70;;
6131;SDS011;3097;42.692;23.278;2022-09-09T03:11:40;13.80;;;11.83;;
6131;SDS011;3097;42.692;23.278;2022-09-09T03:14:05;16.73;;;11.93;;
6131;SDS011;3097;42.692;23.278;2022-09-09T03:16:31;16.43;;;11.77;;
6131;SDS011;3097;42.692;23.278;2022-09-09T03:18:58;13.17;;;11.73;;
6131;SDS011;3097;42.692;23.278;2022-09-09T03:21:23;15.73;;;12.03;;
6131;SDS011;3097;42.692;23.278;2022-09-09T03:23:49;15.17;;;12.00;;
6131;SDS011;3097;42.692;23.278;2022-09-09T03:26:15;15.83;;;12.37;;
6131;SDS011;3097;42.692;23.278;2022-09-09T03:28:41;14.97;;;12.07;;
6131;SDS011;3097;42.692;23.278;2022-09-09T03:31:07;16.43;;;12.60;;
6131;SDS011;3097;42.692;23.278;2022-09-09T03:33:35;14.80;;;12.33;;
6131;SDS011;3097;42.692;23.278;2022-09-09T03:36:04;15.10;;;12.40;;
6131;SDS011;3097;42.692;23.278;2022-09-09T03:38:30;22.00;;;12.90;;
6131;SDS011;3097;42.692;23.278;2022-09-09T03:40:57;14.27;;;12.13;;
6131;SDS011;3097;42.692;23.278;2022-09-09T03:43:23;16.27;;;11.87;;
6131;SDS011;3097;42.692;23.278;2022-09-09T03:45:49;15.63;;;12.30;;
6131;SDS011;3097;42.692;23.278;2022-09-09T03:48:16;15.00;;;12.47;;
6131;SDS011;3097;42.692;23.278;2022-09-09T03:50:45;14.53;;;12.37;;
6131;SDS011;3097;42.692;23.278;2022-09-09T03:53:12;15.27;;;12.50;;
6131;SDS011;3097;42.692;23.278;2022-09-09T03:55:39;15.97;;;13.30;;
6131;SDS011;3097;42.692;23.278;2022-09-09T03:58:08;17.40;;;12.90;;
6131;SDS011;3097;42.692;23.278;2022-09-09T04:00:33;18.00;;;13.03;;
6131;SDS011;3097;42.692;23.278;2022-09-09T04:02:59;15.23;;;12.23;;
6131;SDS011;3097;42.692;23.278;2022-09-09T04:05:24;15.23;;;13.10;;
6131;SDS011;3097;42.692;23.278;2022-09-09T04:07:50;16.47;;;13.33;;
6131;SDS011;3097;42.692;23.278;2022-09-09T04:10:16;16.10;;;12.67;;
6131;SDS011;3097;42.692;23.278;2022-09-09T04:12:41;15.13;;;12.47;;
6131;SDS011;3097;42.692;23.278;2022-09-09T04:15:07;16.50;;;12.73;;
6131;SDS011;3097;42.692;23.278;2022-09-09T04:17:33;15.70;;;12.93;;
6131;SDS011;3097;42.692;23.278;2022-09-09T04:19:58;17.23;;;12.67;;
6131;SDS011;3097;42.692;23.278;2022-09-09T04:22:24;19.17;;;12.60;;
6131;SDS011;3097;42.692;23.278;2022-09-09T04:24:49;17.10;;;12.47;;
6131;SDS011;3097;42.692;23.278;2022-09-09T04:27:15;16.60;;;12.67;;
6131;SDS011;3097;42.692;23.278;2022-09-09T04:29:40;22.83;;;17.60;;
6131;SDS011;3097;42.692;23.278;2022-09-09T04:32:05;659.47;;;269.17;;
6131;SDS011;3097;42.692;23.278;2022-09-09T04:34:31;956.63;;;506.10;;
6131;SDS011;3097;42.692;23.278;2022-09-09T04:36:57;446.27;;;219.17;;
6131;SDS011;3097;42.692;23.278;2022-09-09T04:39:23;43.60;;;25.10;;
6131;SDS011;3097;42.692;23.278;2022-09-09T04:41:49;19.17;;;14.97;;
6131;SDS011;3097;42.692;23.278;2022-09-09T04:44:15;17.70;;;12.63;;
6131;SDS011;3097;42.692;23.278;2022-09-09T04:46:40;15.37;;;12.03;;
6131;SDS011;3097;42.692;23.278;2022-09-09T04:49:06;14.80;;;12.13;;
6131;SDS011;3097;42.692;23.278;2022-09-09T04:51:31;15.77;;;12.93;;
6131;SDS011;3097;42.692;23.278;2022-09-09T04:53:57;19.23;;;13.33;;
6131;SDS011;3097;42.692;23.278;2022-09-09T04:56:23;14.13;;;12.63;;
6131;SDS011;3097;42.692;23.278;2022-09-09T04:58:48;17.27;;;12.70;;
6131;SDS011;3097;42.692;23.278;2022-09-09T05:01:15;13.03;;;11.67;;
6131;SDS011;3097;42.692;23.278;2022-09-09T05:03:43;16.27;;;12.23;;
6131;SDS011;3097;42.692;23.278;2022-09-09T05:06:15;14.50;;;12.47;;
6131;SDS011;3097;42.692;23.278;2022-09-09T05:08:42;16.60;;;11.10;;
6131;SDS011;3097;42.692;23.278;2022-09-09T05:11:22;13.70;;;11.80;;
6131;SDS011;3097;42.692;23.278;2022-09-09T05:13:49;16.33;;;13.13;;
6131;SDS011;3097;42.692;23.278;2022-09-09T05:16:16;15.30;;;12.33;;
6131;SDS011;3097;42.692;23.278;2022-09-09T05:18:42;15.97;;;11.80;;
6131;SDS011;3097;42.692;23.278;2022-09-09T05:21:09;12.77;;;10.70;;
6131;SDS011;3097;42.692;23.278;2022-09-09T05:23:39;12.23;;;11.03;;
6131;SDS011;3097;42.692;23.278;2022-09-09T05:26:05;13.37;;;12.03;;
6131;SDS011;3097;42.692;23.278;2022-09-09T05:28:33;12.93;;;11.67;;
6131;SDS011;3097;42.692;23.278;2022-09-09T05:31:00;13.70;;;11.67;;
6131;SDS011;3097;42.692;23.278;2022-09-09T05:33:31;12.93;;;11.25;;
6131;SDS011;3097;42.692;23.278;2022-09-09T05:36:00;12.70;;;11.43;;
6131;SDS011;3097;42.692;23.278;2022-09-09T05:38:29;13.20;;;11.90;;
6131;SDS011;3097;42.692;23.278;2022-09-09T05:40:57;13.55;;;12.02;;
6131;SDS011;3097;42.692;23.278;2022-09-09T05:43:23;12.40;;;11.20;;
6131;SDS011;3097;42.692;23.278;2022-09-09T05:45:58;12.52;;;11.48;;
6131;SDS011;3097;42.692;23.278;2022-09-09T05:48:30;13.30;;;12.00;;
6131;SDS011;3097;42.692;23.278;2022-09-09T05:50:57;13.30;;;11.95;;
6131;SDS011;3097;42.692;23.278;2022-09-09T05:53:23;13.52;;;12.23;;
6131;SDS011;3097;42.692;23.278;2022-09-09T05:55:48;12.68;;;11.57;;
6131;SDS011;3097;42.692;23.278;2022-09-09T05:58:14;12.25;;;11.23;;
6131;SDS011;3097;42.692;23.278;2022-09-09T06:00:42;11.80;;;10.82;;
6131;SDS011;3097;42.692;23.278;2022-09-09T06:03:11;11.73;;;10.63;;
6131;SDS011;3097;42.692;23.278;2022-09-09T06:05:40;11.68;;;10.77;;
6131;SDS011;3097;42.692;23.278;2022-09-09T06:08:06;12.35;;;11.05;;
6131;SDS011;3097;42.692;23.278;2022-09-09T06:10:32;11.40;;;10.50;;
6131;SDS011;3097;42.692;23.278;2022-09-09T06:12:59;11.82;;;10.82;;
6131;SDS011;3097;42.692;23.278;2022-09-09T06:15:24;12.95;;;11.65;;
6131;SDS011;3097;42.692;23.278;2022-09-09T06:17:56;12.25;;;11.25;;
6131;SDS011;3097;42.692;23.278;2022-09-09T06:20:21;12.68;;;11.57;;
6131;SDS011;3097;42.692;23.278;2022-09-09T06:22:47;12.50;;;11.25;;
6131;SDS011;3097;42.692;23.278;2022-09-09T06:25:16;12.20;;;11.15;;
6131;SDS011;3097;42.692;23.278;2022-09-09T06:27:47;12.00;;;10.95;;
6131;SDS011;3097;42.692;23.278;2022-09-09T06:30:14;12.10;;;11.02;;
6131;SDS011;3097;42.692;23.278;2022-09-09T06:32:39;11.90;;;10.80;;
6131;SDS011;3097;42.692;23.278;2022-09-09T06:35:05;11.65;;;10.65;;
6131;SDS011;3097;42.692;23.278;2022-09-09T06:37:31;11.38;;;10.48;;
6131;SDS011;3097;42.692;23.278;2022-09-09T06:39:57;11.40;;;10.38;;
6131;SDS011;3097;42.692;23.278;2022-09-09T06:42:22;11.73;;;10.73;;
6131;SDS011;3097;42.692;23.278;2022-09-09T06:44:48;10.90;;;10.00;;
6131;SDS011;3097;42.692;23.278;2022-09-09T06:47:13;10.73;;;9.82;;
6131;SDS011;3097;42.692;23.278;2022-09-09T06:49:39;11.88;;;10.73;;
6131;SDS011;3097;42.692;23.278;2022-09-09T06:52:04;10.90;;;10.10;;
6131;SDS011;3097;42.692;23.278;2022-09-09T06:54:30;11.80;;;10.30;;
6131;SDS011;3097;42.692;23.278;2022-09-09T06:56:55;13.32;;;12.23;;
6131;SDS011;3097;42.692;23.278;2022-09-09T06:59:21;13.57;;;12.38;;
6131;SDS011;3097;42.692;23.278;2022-09-09T07:01:46;11.70;;;10.80;;
6131;SDS011;3097;42.692;23.278;2022-09-09T07:04:11;13.88;;;10.63;;
6131;SDS011;3097;42.692;23.278;2022-09-09T07:06:40;11.93;;;10.70;;
6131;SDS011;3097;42.692;23.278;2022-09-09T07:09:09;12.35;;;11.25;;
6131;SDS011;3097;42.692;23.278;2022-09-09T07:11:40;11.82;;;10.60;;
6131;SDS011;3097;42.692;23.278;2022-09-09T07:14:10;12.50;;;11.32;;
6131;SDS011;3097;42.692;23.278;2022-09-09T07:16:39;11.68;;;10.77;;
6131;SDS011;3097;42.692;23.278;2022-09-09T07:19:06;11.98;;;10.88;;
6131;SDS011;3097;42.692;23.278;2022-09-09T07:21:32;11.63;;;10.73;;
6131;SDS011;3097;42.692;23.278;2022-09-09T07:23:58;12.30;;;11.23;;
6131;SDS011;3097;42.692;23.278;2022-09-09T07:26:25;12.07;;;10.95;;
6131;SDS011;3097;42.692;23.278;2022-09-09T07:28:52;12.35;;;11.27;;
6131;SDS011;3097;42.692;23.278;2022-09-09T07:31:19;11.60;;;10.50;;
6131;SDS011;3097;42.692;23.278;2022-09-09T07:33:47;11.88;;;10.82;;
6131;SDS011;3097;42.692;23.278;2022-09-09T07:36:17;12.35;;;11.05;;
6131;SDS011;3097;42.692;23.278;2022-09-09T07:38:48;10.43;;;9.43;;
6131;SDS011;3097;42.692;23.278;2022-09-09T07:41:19;11.52;;;10.52;;
6131;SDS011;3097;42.692;23.278;2022-09-09T07:43:47;10.70;;;9.80;;
6131;SDS011;3097;42.692;23.278;2022-09-09T07:46:14;10.75;;;9.75;;
6131;SDS011;3097;42.692;23.278;2022-09-09T07:48:45;11.15;;;10.10;;
6131;SDS011;3097;42.692;23.278;2022-09-09T07:51:13;12.27;;;11.13;;
6131;SDS011;3097;42.692;23.278;2022-09-09T07:53:45;11.18;;;10.23;;
6131;SDS011;3097;42.692;23.278;2022-09-09T07:58:56;10.75;;;9.80;;
6131;SDS011;3097;42.692;23.278;2022-09-09T08:04:14;11.07;;;9.98;;
6131;SDS011;3097;42.692;23.278;2022-09-09T08:06:43;10.50;;;9.60;;
6131;SDS011;3097;42.692;23.278;2022-09-09T08:09:11;10.73;;;9.77;;
6131;SDS011;3097;42.692;23.278;2022-09-09T08:11:38;9.77;;;8.87;;
6131;SDS011;3097;42.692;23.278;2022-09-09T08:14:04;10.40;;;9.50;;
6131;SDS011;3097;42.692;23.278;2022-09-09T08:16:32;10.00;;;9.10;;
6131;SDS011;3097;42.692;23.278;2022-09-09T08:19:02;9.33;;;8.50;;
6131;SDS011;3097;42.692;23.278;2022-09-09T08:21:29;8.93;;;8.10;;
6131;SDS011;3097;42.692;23.278;2022-09-09T08:23:57;8.70;;;8.00;;
6131;SDS011;3097;42.692;23.278;2022-09-09T08:26:28;9.13;;;8.43;;
6131;SDS011;3097;42.692;23.278;2022-09-09T08:28:59;9.23;;;8.50;;
6131;SDS011;3097;42.692;23.278;2022-09-09T08:33:56;8.50;;;7.83;;
6131;SDS011;3097;42.692;23.278;2022-09-09T08:36:24;9.27;;;8.47;;
6131;SDS011;3097;42.692;23.278;2022-09-09T08:38:53;10.13;;;7.73;;
6131;SDS011;3097;42.692;23.278;2022-09-09T08:41:32;8.77;;;7.90;;
6131;SDS011;3097;42.692;23.278;2022-09-09T08:44:07;8.77;;;8.07;;
6131;SDS011;3097;42.692;23.278;2022-09-09T08:46:51;9.57;;;8.60;;
6131;SDS011;3097;42.692;23.278;2022-09-09T08:52:28;9.50;;;8.60;;
6131;SDS011;3097;42.692;23.278;2022-09-09T08:54:56;9.27;;;8.47;;
6131;SDS011;3097;42.692;23.278;2022-09-09T08:57:28;9.13;;;8.27;;
6131;SDS011;3097;42.692;23.278;2022-09-09T08:59:57;9.63;;;8.57;;
6131;SDS011;3097;42.692;23.278;2022-09-09T09:11:02;9.03;;;8.27;;
6131;SDS011;3097;42.692;23.278;2022-09-09T09:16:19;23.23;;;17.43;;
6131;SDS011;3097;42.692;23.278;2022-09-09T09:18:52;13.90;;;12.23;;
6131;SDS011;3097;42.692;23.278;2022-09-09T09:21:21;9.50;;;8.67;;
6131;SDS011;3097;42.692;23.278;2022-09-09T09:24:19;9.70;;;8.90;;
6131;SDS011;3097;42.692;23.278;2022-09-09T09:26:48;9.30;;;8.50;;
6131;SDS011;3097;42.692;23.278;2022-09-09T09:29:15;8.80;;;7.90;;
6131;SDS011;3097;42.692;23.278;2022-09-09T09:32:01;9.37;;;8.57;;
6131;SDS011;3097;42.692;23.278;2022-09-09T09:34:28;9.43;;;8.47;;
6131;SDS011;3097;42.692;23.278;2022-09-09T09:36:57;10.60;;;9.70;;
6131;SDS011;3097;42.692;23.278;2022-09-09T09:39:30;9.63;;;8.73;;
6131;SDS011;3097;42.692;23.278;2022-09-09T09:42:09;9.03;;;8.27;;
6131;SDS011;3097;42.692;23.278;2022-09-09T09:44:39;8.87;;;8.17;;
6131;SDS011;3097;42.692;23.278;2022-09-09T09:47:07;8.70;;;7.80;;
6131;SDS011;3097;42.692;23.278;2022-09-09T09:49:34;10.33;;;8.33;;
6131;SDS011;3097;42.692;23.278;2022-09-09T09:52:00;8.57;;;7.93;;
6131;SDS011;3097;42.692;23.278;2022-09-09T09:54:28;10.40;;;9.60;;
6131;SDS011;3097;42.692;23.278;2022-09-09T09:56:56;10.83;;;8.73;;
6131;SDS011;3097;42.692;23.278;2022-09-09T09:59:36;8.40;;;7.70;;
6131;SDS011;3097;42.692;23.278;2022-09-09T10:02:18;8.80;;;8.10;;
6131;SDS011;3097;42.692;23.278;2022-09-09T10:04:48;8.57;;;7.87;;
6131;SDS011;3097;42.692;23.278;2022-09-09T10:07:20;9.97;;;8.23;;
6131;SDS011;3097;42.692;23.278;2022-09-09T10:09:54;8.83;;;7.93;;
6131;SDS011;3097;42.692;23.278;2022-09-09T10:15:07;17.67;;;14.87;;
6131;SDS011;3097;42.692;23.278;2022-09-09T10:23:37;8.63;;;7.97;;
6131;SDS011;3097;42.692;23.278;2022-09-09T10:26:38;9.03;;;8.13;;
6131;SDS011;3097;42.692;23.278;2022-09-09T10:42:50;11.20;;;9.23;;
6131;SDS011;3097;42.692;23.278;2022-09-09T10:45:31;10.23;;;8.80;;
6131;SDS011;3097;42.692;23.278;2022-09-09T10:51:23;9.60;;;8.80;;
6131;SDS011;3097;42.692;23.278;2022-09-09T10:56:37;11.40;;;10.20;;
6131;SDS011;3097;42.692;23.278;2022-09-09T11:01:44;10.57;;;9.67;;
6131;SDS011;3097;42.692;23.278;2022-09-09T11:04:38;10.23;;;9.20;;
6131;SDS011;3097;42.692;23.278;2022-09-09T11:07:08;10.30;;;9.33;;
6131;SDS011;3097;42.692;23.278;2022-09-09T11:09:39;9.67;;;8.87;;
6131;SDS011;3097;42.692;23.278;2022-09-09T11:12:15;10.33;;;9.40;;
6131;SDS011;3097;42.692;23.278;2022-09-09T11:19:52;9.33;;;8.47;;
6131;SDS011;3097;42.692;23.278;2022-09-09T11:40:09;9.40;;;8.50;;
6131;SDS011;3097;42.692;23.278;2022-09-09T11:42:42;9.43;;;8.60;;
6131;SDS011;3097;42.692;23.278;2022-09-09T11:45:09;10.10;;;9.17;;
6131;SDS011;3097;42.692;23.278;2022-09-09T11:47:36;10.57;;;9.00;;
6131;SDS011;3097;42.692;23.278;2022-09-09T11:52:41;11.33;;;9.40;;
6131;SDS011;3097;42.692;23.278;2022-09-09T11:55:20;10.83;;;9.87;;
6131;SDS011;3097;42.692;23.278;2022-09-09T11:58:02;12.27;;;9.27;;
6131;SDS011;3097;42.692;23.278;2022-09-09T12:00:37;10.27;;;9.37;;
6131;SDS011;3097;42.692;23.278;2022-09-09T12:03:05;10.77;;;9.60;;
6131;SDS011;3097;42.692;23.278;2022-09-09T12:06:08;10.90;;;9.50;;
6131;SDS011;3097;42.692;23.278;2022-09-09T12:08:27;9.53;;;8.73;;
6131;SDS011;3097;42.692;23.278;2022-09-09T12:10:57;10.43;;;9.53;;
6131;SDS011;3097;42.692;23.278;2022-09-09T12:13:28;10.63;;;9.63;;
6131;SDS011;3097;42.692;23.278;2022-09-09T12:15:56;10.47;;;9.50;;
6131;SDS011;3097;42.692;23.278;2022-09-09T12:23:48;10.93;;;9.77;;
6131;SDS011;3097;42.692;23.278;2022-09-09T12:26:30;9.70;;;8.90;;
6131;SDS011;3097;42.692;23.278;2022-09-09T12:31:46;9.27;;;8.47;;
6131;SDS011;3097;42.692;23.278;2022-09-09T12:34:32;9.03;;;8.30;;
6131;SDS011;3097;42.692;23.278;2022-09-09T12:37:04;11.83;;;8.43;;
6131;SDS011;3097;42.692;23.278;2022-09-09T12:39:37;9.87;;;8.13;;
6131;SDS011;3097;42.692;23.278;2022-09-09T12:42:17;9.73;;;8.87;;
6131;SDS011;3097;42.692;23.278;2022-09-09T12:45:03;10.77;;;9.80;;
6131;SDS011;3097;42.692;23.278;2022-09-09T12:52:44;9.80;;;8.80;;
6131;SDS011;3097;42.692;23.278;2022-09-09T12:55:18;10.17;;;8.80;;
6131;SDS011;3097;42.692;23.278;2022-09-09T12:57:46;8.00;;;7.20;;
6131;SDS011;3097;42.692;23.278;2022-09-09T13:00:19;6.50;;;5.90;;
6131;SDS011;3097;42.692;23.278;2022-09-09T13:02:49;7.07;;;6.37;;
6131;SDS011;3097;42.692;23.278;2022-09-09T13:05:20;5.97;;;5.57;;
6131;SDS011;3097;42.692;23.278;2022-09-09T13:08:00;7.47;;;6.53;;
6131;SDS011;3097;42.692;23.278;2022-09-09T13:10:28;6.63;;;6.00;;
6131;SDS011;3097;42.692;23.278;2022-09-09T13:12:55;7.47;;;5.97;;
6131;SDS011;3097;42.692;23.278;2022-09-09T13:15:23;6.13;;;5.57;;
6131;SDS011;3097;42.692;23.278;2022-09-09T13:17:56;6.13;;;5.70;;
6131;SDS011;3097;42.692;23.278;2022-09-09T13:20:25;10.70;;;6.87;;
6131;SDS011;3097;42.692;23.278;2022-09-09T13:22:52;6.27;;;5.77;;
6131;SDS011;3097;42.692;23.278;2022-09-09T13:25:22;6.77;;;5.87;;
6131;SDS011;3097;42.692;23.278;2022-09-09T13:27:51;6.60;;;6.03;;
6131;SDS011;3097;42.692;23.278;2022-09-09T13:30:27;6.30;;;5.80;;
6131;SDS011;3097;42.692;23.278;2022-09-09T13:35:46;7.10;;;6.10;;
6131;SDS011;3097;42.692;23.278;2022-09-09T13:38:15;6.80;;;6.20;;
6131;SDS011;3097;42.692;23.278;2022-09-09T13:41:03;6.47;;;5.70;;
6131;SDS011;3097;42.692;23.278;2022-09-09T13:43:31;6.77;;;6.27;;
6131;SDS011;3097;42.692;23.278;2022-09-09T13:49:00;7.53;;;6.73;;
6131;SDS011;3097;42.692;23.278;2022-09-09T13:51:47;7.57;;;5.57;;
6131;SDS011;3097;42.692;23.278;2022-09-09T13:54:16;7.07;;;6.37;;
6131;SDS011;3097;42.692;23.278;2022-09-09T13:56:43;6.70;;;5.70;;
6131;SDS011;3097;42.692;23.278;2022-09-09T13:59:13;6.60;;;5.80;;
6131;SDS011;3097;42.692;23.278;2022-09-09T14:01:42;6.73;;;6.13;;
6131;SDS011;3097;42.692;23.278;2022-09-09T14:04:08;6.70;;;6.10;;
6131;SDS011;3097;42.692;23.278;2022-09-09T14:06:37;9.57;;;7.77;;
6131;SDS011;3097;42.692;23.278;2022-09-09T14:09:07;7.90;;;6.43;;
6131;SDS011;3097;42.692;23.278;2022-09-09T14:11:35;6.80;;;6.20;;
6131;SDS011;3097;42.692;23.278;2022-09-09T14:14:00;6.07;;;4.90;;
6131;SDS011;3097;42.692;23.278;2022-09-09T14:16:26;5.87;;;5.37;;
6131;SDS011;3097;42.692;23.278;2022-09-09T14:18:52;6.67;;;6.10;;
6131;SDS011;3097;42.692;23.278;2022-09-09T14:21:18;6.40;;;5.77;;
6131;SDS011;3097;42.692;23.278;2022-09-09T14:23:43;7.20;;;6.50;;
6131;SDS011;3097;42.692;23.278;2022-09-09T14:26:09;9.40;;;6.93;;
6131;SDS011;3097;42.692;23.278;2022-09-09T14:28:35;9.77;;;7.47;;
6131;SDS011;3097;42.692;23.278;2022-09-09T14:31:04;9.07;;;6.93;;
6131;SDS011;3097;42.692;23.278;2022-09-09T14:33:30;7.60;;;7.00;;
6131;SDS011;3097;42.692;23.278;2022-09-09T14:35:59;8.60;;;7.73;;
6131;SDS011;3097;42.692;23.278;2022-09-09T14:38:30;9.73;;;8.93;;
6131;SDS011;3097;42.692;23.278;2022-09-09T14:40:56;10.80;;;9.70;;
6131;SDS011;3097;42.692;23.278;2022-09-09T14:43:23;9.73;;;8.83;;
6131;SDS011;3097;42.692;23.278;2022-09-09T14:45:49;11.03;;;9.97;;
6131;SDS011;3097;42.692;23.278;2022-09-09T14:48:16;12.07;;;9.20;;
6131;SDS011;3097;42.692;23.278;2022-09-09T14:50:42;9.83;;;8.93;;
6131;SDS011;3097;42.692;23.278;2022-09-09T14:53:08;10.17;;;9.27;;
6131;SDS011;3097;42.692;23.278;2022-09-09T14:55:35;9.70;;;8.90;;
6131;SDS011;3097;42.692;23.278;2022-09-09T14:58:02;11.00;;;8.93;;
6131;SDS011;3097;42.692;23.278;2022-09-09T15:00:29;9.67;;;8.77;;
6131;SDS011;3097;42.692;23.278;2022-09-09T15:02:54;9.27;;;8.53;;
6131;SDS011;3097;42.692;23.278;2022-09-09T15:05:20;10.93;;;9.83;;
6131;SDS011;3097;42.692;23.278;2022-09-09T15:07:49;10.93;;;9.83;;
6131;SDS011;3097;42.692;23.278;2022-09-09T15:10:15;9.53;;;8.70;;
6131;SDS011;3097;42.692;23.278;2022-09-09T15:12:42;9.53;;;8.73;;
6131;SDS011;3097;42.692;23.278;2022-09-09T15:15:08;9.97;;;9.07;;
6131;SDS011;3097;42.692;23.278;2022-09-09T15:17:34;10.17;;;9.20;;
6131;SDS011;3097;42.692;23.278;2022-09-09T15:20:02;8.93;;;8.10;;
6131;SDS011;3097;42.692;23.278;2022-09-09T15:22:30;10.27;;;8.93;;
6131;SDS011;3097;42.692;23.278;2022-09-09T15:24:56;9.63;;;8.73;;
6131;SDS011;3097;42.692;23.278;2022-09-09T15:27:22;9.53;;;8.60;;
6131;SDS011;3097;42.692;23.278;2022-09-09T15:29:49;11.67;;;8.80;;
6131;SDS011;3097;42.692;23.278;2022-09-09T15:32:15;14.23;;;10.83;;
6131;SDS011;3097;42.692;23.278;2022-09-09T15:34:40;9.43;;;8.63;;
6131;SDS011;3097;42.692;23.278;2022-09-09T15:37:06;10.70;;;9.60;;
6131;SDS011;3097;42.692;23.278;2022-09-09T15:39:32;12.43;;;10.00;;
6131;SDS011;3097;42.692;23.278;2022-09-09T15:41:57;14.70;;;10.13;;
6131;SDS011;3097;42.692;23.278;2022-09-09T15:44:23;12.30;;;9.93;;
6131;SDS011;3097;42.692;23.278;2022-09-09T15:46:51;10.20;;;9.30;;
6131;SDS011;3097;42.692;23.278;2022-09-09T15:49:19;11.63;;;9.30;;
6131;SDS011;3097;42.692;23.278;2022-09-09T15:51:55;11.63;;;10.50;;
6131;SDS011;3097;42.692;23.278;2022-09-09T15:54:23;10.90;;;9.80;;
6131;SDS011;3097;42.692;23.278;2022-09-09T15:56:52;9.60;;;8.43;;
6131;SDS011;3097;42.692;23.278;2022-09-09T15:59:22;9.50;;;8.60;;
6131;SDS011;3097;42.692;23.278;2022-09-09T16:01:49;9.73;;;8.80;;
6131;SDS011;3097;42.692;23.278;2022-09-09T16:04:18;11.40;;;8.80;;
6131;SDS011;3097;42.692;23.278;2022-09-09T16:06:50;11.60;;;8.73;;
6131;SDS011;3097;42.692;23.278;2022-09-09T16:09:22;12.73;;;11.53;;
6131;SDS011;3097;42.692;23.278;2022-09-09T16:11:47;14.73;;;12.83;;
6131;SDS011;3097;42.692;23.278;2022-09-09T16:14:13;15.50;;;10.80;;
6131;SDS011;3097;42.692;23.278;2022-09-09T16:16:40;12.77;;;11.47;;
6131;SDS011;3097;42.692;23.278;2022-09-09T16:19:07;11.63;;;10.47;;
6131;SDS011;3097;42.692;23.278;2022-09-09T16:21:42;13.70;;;11.47;;
6131;SDS011;3097;42.692;23.278;2022-09-09T16:24:10;12.73;;;11.10;;
6131;SDS011;3097;42.692;23.278;2022-09-09T16:26:37;11.07;;;9.67;;
6131;SDS011;3097;42.692;23.278;2022-09-09T16:29:05;11.43;;;9.80;;
6131;SDS011;3097;42.692;23.278;2022-09-09T16:31:31;16.50;;;12.03;;
6131;SDS011;3097;42.692;23.278;2022-09-09T16:33:59;18.23;;;13.30;;
6131;SDS011;3097;42.692;23.278;2022-09-09T16:36:26;23.27;;;17.17;;
6131;SDS011;3097;42.692;23.278;2022-09-09T16:38:53;18.10;;;14.17;;
6131;SDS011;3097;42.692;23.278;2022-09-09T16:41:20;15.27;;;13.47;;
6131;SDS011;3097;42.692;23.278;2022-09-09T16:43:47;15.77;;;12.27;;
6131;SDS011;3097;42.692;23.278;2022-09-09T16:46:17;17.40;;;12.43;;
6131;SDS011;3097;42.692;23.278;2022-09-09T16:48:44;19.97;;;13.83;;
6131;SDS011;3097;42.692;23.278;2022-09-09T16:51:12;13.80;;;12.40;;
6131;SDS011;3097;42.692;23.278;2022-09-09T16:53:42;16.30;;;12.83;;
6131;SDS011;3097;42.692;23.278;2022-09-09T16:56:08;14.87;;;11.70;;
6131;SDS011;3097;42.692;23.278;2022-09-09T16:58:36;16.13;;;12.70;;
6131;SDS011;3097;42.692;23.278;2022-09-09T17:01:02;16.77;;;12.07;;
6131;SDS011;3097;42.692;23.278;2022-09-09T17:03:28;13.37;;;11.80;;
6131;SDS011;3097;42.692;23.278;2022-09-09T17:05:54;13.37;;;10.67;;
6131;SDS011;3097;42.692;23.278;2022-09-09T17:08:20;29.13;;;18.63;;
6131;SDS011;3097;42.692;23.278;2022-09-09T17:10:45;15.07;;;12.10;;
6131;SDS011;3097;42.692;23.278;2022-09-09T17:13:12;15.40;;;13.40;;
6131;SDS011;3097;42.692;23.278;2022-09-09T17:15:41;20.53;;;15.23;;
6131;SDS011;3097;42.692;23.278;2022-09-09T17:18:10;15.23;;;13.10;;
6131;SDS011;3097;42.692;23.278;2022-09-09T17:20:37;18.60;;;12.53;;
6131;SDS011;3097;42.692;23.278;2022-09-09T17:23:05;12.83;;;11.40;;